sensor_id;sensor_type;location;lat;lon;timestamp;P1;durP1;ratioP1;P2;durP2;ratioP2
62830;SDS011;48889;55.782;37.708;2022-07-29T00:02:08;3.05;;;1.10;;
62830;SDS011;48889;55.782;37.708;2022-07-29T00:04:34;3.42;;;1.02;;
62830;SDS011;48889;55.782;37.708;2022-07-29T00:07:00;5.50;;;1.13;;
62830;SDS011;48889;55.782;37.708;2022-07-29T00:09:26;2.00;;;1.23;;
62830;SDS011;48889;55.782;37.708;2022-07-29T00:11:53;1.10;;;1.00;;
62830;SDS011;48889;55.782;37.708;2022-07-29T00:14:20;2.35;;;1.05;;
62830;SDS011;48889;55.782;37.708;2022-07-29T00:16:46;4.93;;;1.10;;
62830;SDS011;48889;55.782;37.708;2022-07-29T00:19:11;3.70;;;1.00;;
62830;SDS011;48889;55.782;37.708;2022-07-29T00:21:37;1.67;;;1.00;;
62830;SDS011;48889;55.782;37.708;2022-07-29T00:24:02;1.92;;;0.82;;
62830;SDS011;48889;55.782;37.708;2022-07-29T00:26:28;2.63;;;1.20;;
62830;SDS011;48889;55.782;37.708;2022-07-29T00:28:57;4.57;;;1.02;;
62830;SDS011;48889;55.782;37.708;2022-07-29T00:31:27;1.03;;;1.00;;
62830;SDS011;48889;55.782;37.708;2022-07-29T00:33:52;2.25;;;1.13;;
62830;SDS011;48889;55.782;37.708;2022-07-29T00:36:18;1.65;;;1.20;;
62830;SDS011;48889;55.782;37.708;2022-07-29T00:38:46;5.80;;;1.33;;
62830;SDS011;48889;55.782;37.708;2022-07-29T00:41:13;3.20;;;1.10;;
62830;SDS011;48889;55.782;37.708;2022-07-29T00:43:38;2.67;;;1.00;;
62830;SDS011;48889;55.782;37.708;2022-07-29T00:46:04;4.53;;;1.27;;
62830;SDS011;48889;55.782;37.708;2022-07-29T00:48:30;5.38;;;1.10;;
62830;SDS011;48889;55.782;37.708;2022-07-29T00:50:59;3.33;;;1.20;;
62830;SDS011;48889;55.782;37.708;2022-07-29T00:53:26;3.28;;;1.00;;
62830;SDS011;48889;55.782;37.708;2022-07-29T00:55:53;2.08;;;1.23;;
62830;SDS011;48889;55.782;37.708;2022-07-29T00:58:20;1.88;;;1.00;;
62830;SDS011;48889;55.782;37.708;2022-07-29T01:00:46;7.47;;;1.45;;
62830;SDS011;48889;55.782;37.708;2022-07-29T01:03:12;2.90;;;1.10;;
62830;SDS011;48889;55.782;37.708;2022-07-29T01:05:38;3.03;;;1.05;;
62830;SDS011;48889;55.782;37.708;2022-07-29T01:08:04;1.90;;;1.00;;
62830;SDS011;48889;55.782;37.708;2022-07-29T01:10:30;1.75;;;1.10;;
62830;SDS011;48889;55.782;37.708;2022-07-29T01:12:57;1.40;;;0.80;;
62830;SDS011;48889;55.782;37.708;2022-07-29T01:15:25;2.67;;;1.13;;
62830;SDS011;48889;55.782;37.708;2022-07-29T01:17:59;1.85;;;0.90;;
62830;SDS011;48889;55.782;37.708;2022-07-29T01:34:35;1.45;;;1.27;;
62830;SDS011;48889;55.782;37.708;2022-07-29T01:39:52;1.90;;;1.20;;
62830;SDS011;48889;55.782;37.708;2022-07-29T01:44:56;1.63;;;1.38;;
62830;SDS011;48889;55.782;37.708;2022-07-29T01:47:29;5.15;;;1.33;;
62830;SDS011;48889;55.782;37.708;2022-07-29T01:49:59;4.07;;;1.42;;
62830;SDS011;48889;55.782;37.708;2022-07-29T01:52:36;1.90;;;1.23;;
62830;SDS011;48889;55.782;37.708;2022-07-29T01:55:09;3.15;;;1.25;;
62830;SDS011;48889;55.782;37.708;2022-07-29T01:57:42;8.35;;;1.45;;
62830;SDS011;48889;55.782;37.708;2022-07-29T02:00:10;1.88;;;1.08;;
62830;SDS011;48889;55.782;37.708;2022-07-29T02:02:37;4.95;;;1.30;;
62830;SDS011;48889;55.782;37.708;2022-07-29T02:05:05;3.08;;;1.42;;
62830;SDS011;48889;55.782;37.708;2022-07-29T02:07:34;6.93;;;1.80;;
62830;SDS011;48889;55.782;37.708;2022-07-29T02:10:03;2.83;;;1.40;;
62830;SDS011;48889;55.782;37.708;2022-07-29T02:12:31;4.90;;;1.30;;
62830;SDS011;48889;55.782;37.708;2022-07-29T02:15:18;6.70;;;1.30;;
62830;SDS011;48889;55.782;37.708;2022-07-29T02:17:45;3.22;;;1.33;;
62830;SDS011;48889;55.782;37.708;2022-07-29T02:20:15;1.70;;;1.10;;
62830;SDS011;48889;55.782;37.708;2022-07-29T02:22:41;4.28;;;1.40;;
62830;SDS011;48889;55.782;37.708;2022-07-29T02:25:09;3.15;;;1.38;;
62830;SDS011;48889;55.782;37.708;2022-07-29T02:27:36;5.03;;;1.50;;
62830;SDS011;48889;55.782;37.708;2022-07-29T02:30:04;5.03;;;1.70;;
62830;SDS011;48889;55.782;37.708;2022-07-29T02:32:34;4.00;;;1.42;;
62830;SDS011;48889;55.782;37.708;2022-07-29T02:35:02;3.38;;;1.65;;
62830;SDS011;48889;55.782;37.708;2022-07-29T02:37:29;4.65;;;1.60;;
62830;SDS011;48889;55.782;37.708;2022-07-29T02:39:57;5.13;;;1.60;;
62830;SDS011;48889;55.782;37.708;2022-07-29T02:42:23;5.63;;;1.50;;
62830;SDS011;48889;55.782;37.708;2022-07-29T02:44:51;3.55;;;1.55;;
62830;SDS011;48889;55.782;37.708;2022-07-29T02:47:22;4.43;;;1.27;;
62830;SDS011;48889;55.782;37.708;2022-07-29T02:49:54;3.92;;;1.40;;
62830;SDS011;48889;55.782;37.708;2022-07-29T02:52:35;4.43;;;1.40;;
62830;SDS011;48889;55.782;37.708;2022-07-29T02:55:11;1.33;;;1.23;;
62830;SDS011;48889;55.782;37.708;2022-07-29T02:57:46;1.77;;;1.30;;
62830;SDS011;48889;55.782;37.708;2022-07-29T03:00:14;3.40;;;1.23;;
62830;SDS011;48889;55.782;37.708;2022-07-29T03:02:42;4.72;;;1.40;;
62830;SDS011;48889;55.782;37.708;2022-07-29T03:05:10;7.60;;;1.70;;
62830;SDS011;48889;55.782;37.708;2022-07-29T03:07:40;6.22;;;1.50;;
62830;SDS011;48889;55.782;37.708;2022-07-29T03:10:10;3.72;;;1.38;;
62830;SDS011;48889;55.782;37.708;2022-07-29T03:12:39;5.78;;;1.50;;
62830;SDS011;48889;55.782;37.708;2022-07-29T03:15:07;8.40;;;1.70;;
62830;SDS011;48889;55.782;37.708;2022-07-29T03:17:34;3.05;;;1.48;;
62830;SDS011;48889;55.782;37.708;2022-07-29T03:20:00;7.20;;;1.52;;
62830;SDS011;48889;55.782;37.708;2022-07-29T03:22:29;2.67;;;1.27;;
62830;SDS011;48889;55.782;37.708;2022-07-29T03:24:54;5.75;;;1.60;;
62830;SDS011;48889;55.782;37.708;2022-07-29T03:27:20;10.90;;;1.80;;
62830;SDS011;48889;55.782;37.708;2022-07-29T03:29:46;2.53;;;1.33;;
62830;SDS011;48889;55.782;37.708;2022-07-29T03:32:11;2.92;;;1.50;;
62830;SDS011;48889;55.782;37.708;2022-07-29T03:34:37;2.70;;;1.50;;
62830;SDS011;48889;55.782;37.708;2022-07-29T03:37:03;3.15;;;1.30;;
62830;SDS011;48889;55.782;37.708;2022-07-29T03:39:31;2.95;;;1.52;;
62830;SDS011;48889;55.782;37.708;2022-07-29T03:42:00;2.42;;;1.33;;
62830;SDS011;48889;55.782;37.708;2022-07-29T03:44:26;2.17;;;1.27;;
62830;SDS011;48889;55.782;37.708;2022-07-29T03:46:53;11.68;;;1.40;;
62830;SDS011;48889;55.782;37.708;2022-07-29T03:49:23;2.47;;;1.40;;
62830;SDS011;48889;55.782;37.708;2022-07-29T03:51:51;3.20;;;1.48;;
62830;SDS011;48889;55.782;37.708;2022-07-29T03:54:18;2.67;;;1.10;;
62830;SDS011;48889;55.782;37.708;2022-07-29T03:56:45;4.82;;;1.23;;
62830;SDS011;48889;55.782;37.708;2022-07-29T03:59:13;2.75;;;1.50;;
62830;SDS011;48889;55.782;37.708;2022-07-29T04:01:40;6.00;;;1.50;;
62830;SDS011;48889;55.782;37.708;2022-07-29T04:04:07;4.85;;;1.20;;
62830;SDS011;48889;55.782;37.708;2022-07-29T04:06:42;3.50;;;1.30;;
62830;SDS011;48889;55.782;37.708;2022-07-29T04:09:09;2.72;;;1.02;;
62830;SDS011;48889;55.782;37.708;2022-07-29T04:11:36;1.83;;;1.17;;
62830;SDS011;48889;55.782;37.708;2022-07-29T04:14:04;2.90;;;1.40;;
62830;SDS011;48889;55.782;37.708;2022-07-29T04:16:29;2.65;;;1.20;;
62830;SDS011;48889;55.782;37.708;2022-07-29T04:18:55;3.63;;;1.27;;
62830;SDS011;48889;55.782;37.708;2022-07-29T04:21:21;3.70;;;1.17;;
62830;SDS011;48889;55.782;37.708;2022-07-29T04:23:46;2.60;;;1.38;;
62830;SDS011;48889;55.782;37.708;2022-07-29T04:26:18;4.75;;;1.25;;
62830;SDS011;48889;55.782;37.708;2022-07-29T04:28:45;2.28;;;1.02;;
62830;SDS011;48889;55.782;37.708;2022-07-29T04:31:11;3.00;;;1.20;;
62830;SDS011;48889;55.782;37.708;2022-07-29T04:33:38;3.22;;;1.60;;
62830;SDS011;48889;55.782;37.708;2022-07-29T04:36:04;3.13;;;1.20;;
62830;SDS011;48889;55.782;37.708;2022-07-29T04:38:30;1.77;;;1.15;;
62830;SDS011;48889;55.782;37.708;2022-07-29T04:40:55;1.48;;;1.10;;
62830;SDS011;48889;55.782;37.708;2022-07-29T04:43:21;4.07;;;1.35;;
62830;SDS011;48889;55.782;37.708;2022-07-29T04:45:47;4.18;;;1.35;;
62830;SDS011;48889;55.782;37.708;2022-07-29T04:48:12;12.63;;;1.70;;
62830;SDS011;48889;55.782;37.708;2022-07-29T04:50:38;7.05;;;1.40;;
62830;SDS011;48889;55.782;37.708;2022-07-29T04:53:06;4.80;;;1.20;;
62830;SDS011;48889;55.782;37.708;2022-07-29T04:55:33;2.50;;;1.20;;
62830;SDS011;48889;55.782;37.708;2022-07-29T04:57:59;2.83;;;1.30;;
62830;SDS011;48889;55.782;37.708;2022-07-29T05:00:24;3.67;;;1.10;;
62830;SDS011;48889;55.782;37.708;2022-07-29T05:02:50;5.28;;;1.10;;
62830;SDS011;48889;55.782;37.708;2022-07-29T05:05:16;4.53;;;1.48;;
62830;SDS011;48889;55.782;37.708;2022-07-29T05:07:42;2.33;;;1.05;;
62830;SDS011;48889;55.782;37.708;2022-07-29T05:10:07;2.20;;;1.30;;
62830;SDS011;48889;55.782;37.708;2022-07-29T05:12:33;5.07;;;1.45;;
62830;SDS011;48889;55.782;37.708;2022-07-29T05:14:59;2.25;;;1.40;;
62830;SDS011;48889;55.782;37.708;2022-07-29T05:17:25;6.82;;;1.50;;
62830;SDS011;48889;55.782;37.708;2022-07-29T05:19:53;4.07;;;1.20;;
62830;SDS011;48889;55.782;37.708;2022-07-29T05:22:19;1.85;;;1.13;;
62830;SDS011;48889;55.782;37.708;2022-07-29T05:24:46;8.88;;;1.55;;
62830;SDS011;48889;55.782;37.708;2022-07-29T05:27:11;4.95;;;1.40;;
62830;SDS011;48889;55.782;37.708;2022-07-29T05:29:37;2.58;;;1.25;;
62830;SDS011;48889;55.782;37.708;2022-07-29T05:32:03;7.55;;;1.60;;
62830;SDS011;48889;55.782;37.708;2022-07-29T05:34:30;2.85;;;1.08;;
62830;SDS011;48889;55.782;37.708;2022-07-29T05:36:55;5.90;;;1.50;;
62830;SDS011;48889;55.782;37.708;2022-07-29T05:39:22;3.25;;;1.50;;
62830;SDS011;48889;55.782;37.708;2022-07-29T05:41:48;6.45;;;2.00;;
62830;SDS011;48889;55.782;37.708;2022-07-29T05:44:14;7.38;;;1.40;;
62830;SDS011;48889;55.782;37.708;2022-07-29T05:46:40;4.45;;;1.33;;
62830;SDS011;48889;55.782;37.708;2022-07-29T05:49:05;3.80;;;1.33;;
62830;SDS011;48889;55.782;37.708;2022-07-29T05:51:33;3.33;;;1.35;;
62830;SDS011;48889;55.782;37.708;2022-07-29T05:53:58;6.82;;;1.58;;
62830;SDS011;48889;55.782;37.708;2022-07-29T05:56:25;8.02;;;1.67;;
62830;SDS011;48889;55.782;37.708;2022-07-29T05:58:51;7.13;;;1.98;;
62830;SDS011;48889;55.782;37.708;2022-07-29T06:01:17;2.63;;;1.23;;
62830;SDS011;48889;55.782;37.708;2022-07-29T06:03:43;6.65;;;1.35;;
62830;SDS011;48889;55.782;37.708;2022-07-29T06:06:09;1.65;;;1.15;;
62830;SDS011;48889;55.782;37.708;2022-07-29T06:08:35;6.15;;;1.42;;
62830;SDS011;48889;55.782;37.708;2022-07-29T06:11:02;7.20;;;1.60;;
62830;SDS011;48889;55.782;37.708;2022-07-29T06:13:29;2.15;;;1.10;;
62830;SDS011;48889;55.782;37.708;2022-07-29T06:15:55;2.28;;;1.23;;
62830;SDS011;48889;55.782;37.708;2022-07-29T06:18:22;2.83;;;1.10;;
62830;SDS011;48889;55.782;37.708;2022-07-29T06:20:51;6.72;;;1.30;;
62830;SDS011;48889;55.782;37.708;2022-07-29T06:23:17;3.20;;;1.65;;
62830;SDS011;48889;55.782;37.708;2022-07-29T06:25:44;7.07;;;1.20;;
62830;SDS011;48889;55.782;37.708;2022-07-29T06:28:09;1.25;;;1.13;;
62830;SDS011;48889;55.782;37.708;2022-07-29T06:30:35;1.80;;;1.15;;
62830;SDS011;48889;55.782;37.708;2022-07-29T06:33:01;2.15;;;1.00;;
62830;SDS011;48889;55.782;37.708;2022-07-29T06:35:27;8.70;;;1.50;;
62830;SDS011;48889;55.782;37.708;2022-07-29T06:37:53;6.00;;;1.58;;
62830;SDS011;48889;55.782;37.708;2022-07-29T06:40:19;4.55;;;1.48;;
62830;SDS011;48889;55.782;37.708;2022-07-29T06:43:03;2.90;;;1.13;;
62830;SDS011;48889;55.782;37.708;2022-07-29T06:45:29;2.88;;;1.20;;
62830;SDS011;48889;55.782;37.708;2022-07-29T06:47:55;1.65;;;1.20;;
62830;SDS011;48889;55.782;37.708;2022-07-29T06:50:20;2.65;;;1.42;;
62830;SDS011;48889;55.782;37.708;2022-07-29T06:52:47;8.25;;;1.50;;
62830;SDS011;48889;55.782;37.708;2022-07-29T06:55:13;3.35;;;1.40;;
62830;SDS011;48889;55.782;37.708;2022-07-29T06:57:39;6.18;;;1.20;;
62830;SDS011;48889;55.782;37.708;2022-07-29T07:00:05;2.65;;;1.05;;
62830;SDS011;48889;55.782;37.708;2022-07-29T07:02:32;4.28;;;1.35;;
62830;SDS011;48889;55.782;37.708;2022-07-29T07:04:58;8.27;;;1.20;;
62830;SDS011;48889;55.782;37.708;2022-07-29T07:07:24;6.63;;;1.58;;
62830;SDS011;48889;55.782;37.708;2022-07-29T07:09:50;2.75;;;1.20;;
62830;SDS011;48889;55.782;37.708;2022-07-29T07:12:15;1.52;;;1.02;;
62830;SDS011;48889;55.782;37.708;2022-07-29T07:14:41;1.50;;;0.90;;
62830;SDS011;48889;55.782;37.708;2022-07-29T07:17:06;1.52;;;1.05;;
62830;SDS011;48889;55.782;37.708;2022-07-29T07:19:33;1.65;;;1.10;;
62830;SDS011;48889;55.782;37.708;2022-07-29T07:21:58;6.43;;;1.20;;
62830;SDS011;48889;55.782;37.708;2022-07-29T07:24:24;3.22;;;1.30;;
62830;SDS011;48889;55.782;37.708;2022-07-29T07:26:50;3.92;;;1.10;;
62830;SDS011;48889;55.782;37.708;2022-07-29T07:29:16;2.17;;;1.02;;
62830;SDS011;48889;55.782;37.708;2022-07-29T07:31:41;3.00;;;1.10;;
62830;SDS011;48889;55.782;37.708;2022-07-29T07:34:07;3.70;;;1.05;;
62830;SDS011;48889;55.782;37.708;2022-07-29T07:36:33;2.05;;;1.17;;
62830;SDS011;48889;55.782;37.708;2022-07-29T07:38:58;4.13;;;1.10;;
62830;SDS011;48889;55.782;37.708;2022-07-29T07:41:24;1.58;;;0.80;;
62830;SDS011;48889;55.782;37.708;2022-07-29T07:43:50;1.30;;;1.00;;
62830;SDS011;48889;55.782;37.708;2022-07-29T07:46:18;2.33;;;1.00;;
62830;SDS011;48889;55.782;37.708;2022-07-29T07:48:43;2.17;;;1.10;;
62830;SDS011;48889;55.782;37.708;2022-07-29T07:51:09;2.88;;;1.00;;
62830;SDS011;48889;55.782;37.708;2022-07-29T07:53:35;2.65;;;0.80;;
62830;SDS011;48889;55.782;37.708;2022-07-29T07:56:03;2.63;;;0.90;;
62830;SDS011;48889;55.782;37.708;2022-07-29T07:58:30;1.60;;;1.10;;
62830;SDS011;48889;55.782;37.708;2022-07-29T08:00:55;1.55;;;0.85;;
62830;SDS011;48889;55.782;37.708;2022-07-29T08:03:23;1.65;;;0.80;;
62830;SDS011;48889;55.782;37.708;2022-07-29T08:05:49;5.47;;;0.90;;
62830;SDS011;48889;55.782;37.708;2022-07-29T08:08:17;2.00;;;0.90;;
62830;SDS011;48889;55.782;37.708;2022-07-29T08:10:43;3.42;;;1.10;;
62830;SDS011;48889;55.782;37.708;2022-07-29T08:13:18;1.45;;;1.00;;
62830;SDS011;48889;55.782;37.708;2022-07-29T08:15:45;3.50;;;0.93;;
62830;SDS011;48889;55.782;37.708;2022-07-29T08:18:14;1.77;;;1.00;;
62830;SDS011;48889;55.782;37.708;2022-07-29T08:20:39;2.05;;;0.93;;
62830;SDS011;48889;55.782;37.708;2022-07-29T08:23:06;4.47;;;0.95;;
62830;SDS011;48889;55.782;37.708;2022-07-29T08:25:35;2.88;;;0.90;;
62830;SDS011;48889;55.782;37.708;2022-07-29T08:28:01;1.52;;;0.80;;
62830;SDS011;48889;55.782;37.708;2022-07-29T08:30:27;1.02;;;0.90;;
62830;SDS011;48889;55.782;37.708;2022-07-29T08:32:53;1.20;;;0.98;;
62830;SDS011;48889;55.782;37.708;2022-07-29T08:35:19;3.53;;;1.10;;
62830;SDS011;48889;55.782;37.708;2022-07-29T08:37:46;1.65;;;1.17;;
62830;SDS011;48889;55.782;37.708;2022-07-29T08:40:11;1.10;;;0.90;;
62830;SDS011;48889;55.782;37.708;2022-07-29T08:42:37;4.18;;;0.88;;
62830;SDS011;48889;55.782;37.708;2022-07-29T08:45:03;2.45;;;1.08;;
62830;SDS011;48889;55.782;37.708;2022-07-29T08:47:30;5.28;;;0.90;;
62830;SDS011;48889;55.782;37.708;2022-07-29T08:49:56;1.63;;;0.80;;
62830;SDS011;48889;55.782;37.708;2022-07-29T08:52:22;8.60;;;0.93;;
62830;SDS011;48889;55.782;37.708;2022-07-29T08:54:50;3.75;;;0.90;;
62830;SDS011;48889;55.782;37.708;2022-07-29T08:57:18;1.92;;;0.73;;
62830;SDS011;48889;55.782;37.708;2022-07-29T08:59:44;3.20;;;0.82;;
62830;SDS011;48889;55.782;37.708;2022-07-29T09:02:12;1.50;;;0.82;;
62830;SDS011;48889;55.782;37.708;2022-07-29T09:04:47;3.10;;;1.10;;
62830;SDS011;48889;55.782;37.708;2022-07-29T09:07:17;1.83;;;0.60;;
62830;SDS011;48889;55.782;37.708;2022-07-29T09:09:43;1.85;;;0.68;;
62830;SDS011;48889;55.782;37.708;2022-07-29T09:12:09;1.75;;;0.70;;
62830;SDS011;48889;55.782;37.708;2022-07-29T09:14:39;3.13;;;0.90;;
62830;SDS011;48889;55.782;37.708;2022-07-29T09:17:05;3.67;;;0.70;;
62830;SDS011;48889;55.782;37.708;2022-07-29T09:19:35;1.25;;;0.80;;
62830;SDS011;48889;55.782;37.708;2022-07-29T09:22:05;2.55;;;0.88;;
62830;SDS011;48889;55.782;37.708;2022-07-29T09:24:42;3.55;;;0.95;;
62830;SDS011;48889;55.782;37.708;2022-07-29T09:27:29;1.50;;;0.82;;
62830;SDS011;48889;55.782;37.708;2022-07-29T09:32:29;2.25;;;0.93;;
62830;SDS011;48889;55.782;37.708;2022-07-29T09:37:43;2.13;;;0.85;;
62830;SDS011;48889;55.782;37.708;2022-07-29T09:40:13;2.17;;;0.60;;
62830;SDS011;48889;55.782;37.708;2022-07-29T09:42:40;1.75;;;0.73;;
62830;SDS011;48889;55.782;37.708;2022-07-29T09:45:06;0.70;;;0.60;;
62830;SDS011;48889;55.782;37.708;2022-07-29T09:48:13;2.75;;;1.00;;
62830;SDS011;48889;55.782;37.708;2022-07-29T09:50:40;0.70;;;0.50;;
62830;SDS011;48889;55.782;37.708;2022-07-29T09:53:07;1.25;;;0.73;;
62830;SDS011;48889;55.782;37.708;2022-07-29T09:55:46;2.70;;;0.50;;
62830;SDS011;48889;55.782;37.708;2022-07-29T09:58:18;3.67;;;0.90;;
62830;SDS011;48889;55.782;37.708;2022-07-29T10:00:46;1.77;;;0.80;;
62830;SDS011;48889;55.782;37.708;2022-07-29T10:03:13;1.63;;;0.80;;
62830;SDS011;48889;55.782;37.708;2022-07-29T10:05:39;1.17;;;0.90;;
62830;SDS011;48889;55.782;37.708;2022-07-29T10:08:05;1.13;;;0.90;;
62830;SDS011;48889;55.782;37.708;2022-07-29T10:10:33;1.92;;;1.02;;
62830;SDS011;48889;55.782;37.708;2022-07-29T10:13:02;3.47;;;0.85;;
62830;SDS011;48889;55.782;37.708;2022-07-29T10:15:30;4.00;;;0.90;;
62830;SDS011;48889;55.782;37.708;2022-07-29T10:17:58;3.67;;;0.82;;
62830;SDS011;48889;55.782;37.708;2022-07-29T10:20:24;0.70;;;0.70;;
62830;SDS011;48889;55.782;37.708;2022-07-29T10:22:52;0.60;;;0.60;;
62830;SDS011;48889;55.782;37.708;2022-07-29T10:25:19;1.38;;;0.90;;
62830;SDS011;48889;55.782;37.708;2022-07-29T10:27:46;3.38;;;0.90;;
62830;SDS011;48889;55.782;37.708;2022-07-29T10:30:13;5.45;;;0.57;;
62830;SDS011;48889;55.782;37.708;2022-07-29T10:38:06;1.00;;;0.63;;
62830;SDS011;48889;55.782;37.708;2022-07-29T10:46:24;1.08;;;0.80;;
62830;SDS011;48889;55.782;37.708;2022-07-29T10:54:39;1.48;;;0.80;;
62830;SDS011;48889;55.782;37.708;2022-07-29T10:59:45;1.13;;;0.80;;
62830;SDS011;48889;55.782;37.708;2022-07-29T11:05:14;3.13;;;1.10;;
62830;SDS011;48889;55.782;37.708;2022-07-29T11:10:35;1.60;;;0.90;;
62830;SDS011;48889;55.782;37.708;2022-07-29T11:13:00;2.50;;;0.95;;
62830;SDS011;48889;55.782;37.708;2022-07-29T11:15:26;1.17;;;0.93;;
62830;SDS011;48889;55.782;37.708;2022-07-29T11:28:39;1.92;;;0.95;;
62830;SDS011;48889;55.782;37.708;2022-07-29T11:31:07;1.17;;;0.70;;
62830;SDS011;48889;55.782;37.708;2022-07-29T11:33:35;1.33;;;1.05;;
62830;SDS011;48889;55.782;37.708;2022-07-29T11:36:12;2.50;;;0.77;;
62830;SDS011;48889;55.782;37.708;2022-07-29T11:38:39;0.70;;;0.70;;
62830;SDS011;48889;55.782;37.708;2022-07-29T11:41:24;4.38;;;1.60;;
62830;SDS011;48889;55.782;37.708;2022-07-29T11:43:58;1.08;;;1.00;;
62830;SDS011;48889;55.782;37.708;2022-07-29T11:49:19;5.15;;;0.80;;
62830;SDS011;48889;55.782;37.708;2022-07-29T11:51:54;1.00;;;0.82;;
62830;SDS011;48889;55.782;37.708;2022-07-29T11:54:23;2.50;;;0.73;;
62830;SDS011;48889;55.782;37.708;2022-07-29T11:56:52;1.55;;;0.70;;
62830;SDS011;48889;55.782;37.708;2022-07-29T11:59:18;1.55;;;0.52;;
62830;SDS011;48889;55.782;37.708;2022-07-29T12:01:54;3.67;;;1.00;;
62830;SDS011;48889;55.782;37.708;2022-07-29T12:04:22;2.75;;;0.95;;
62830;SDS011;48889;55.782;37.708;2022-07-29T12:06:50;3.70;;;1.02;;
62830;SDS011;48889;55.782;37.708;2022-07-29T12:09:17;3.58;;;0.98;;
62830;SDS011;48889;55.782;37.708;2022-07-29T12:11:43;1.73;;;0.70;;
62830;SDS011;48889;55.782;37.708;2022-07-29T12:14:24;1.85;;;0.98;;
62830;SDS011;48889;55.782;37.708;2022-07-29T12:16:56;1.65;;;0.70;;
62830;SDS011;48889;55.782;37.708;2022-07-29T12:19:25;1.15;;;0.80;;
62830;SDS011;48889;55.782;37.708;2022-07-29T12:21:52;4.18;;;1.50;;
62830;SDS011;48889;55.782;37.708;2022-07-29T12:24:19;2.95;;;0.75;;
62830;SDS011;48889;55.782;37.708;2022-07-29T12:26:56;1.80;;;0.80;;
62830;SDS011;48889;55.782;37.708;2022-07-29T12:29:24;2.67;;;0.80;;
62830;SDS011;48889;55.782;37.708;2022-07-29T12:31:52;1.60;;;1.10;;
62830;SDS011;48889;55.782;37.708;2022-07-29T12:34:23;2.00;;;1.10;;
62830;SDS011;48889;55.782;37.708;2022-07-29T12:36:52;2.70;;;0.90;;
62830;SDS011;48889;55.782;37.708;2022-07-29T12:39:18;5.30;;;1.10;;
62830;SDS011;48889;55.782;37.708;2022-07-29T12:41:45;5.07;;;0.93;;
62830;SDS011;48889;55.782;37.708;2022-07-29T12:44:12;3.78;;;0.90;;
62830;SDS011;48889;55.782;37.708;2022-07-29T12:46:37;1.08;;;0.98;;
62830;SDS011;48889;55.782;37.708;2022-07-29T12:49:03;4.05;;;1.20;;
62830;SDS011;48889;55.782;37.708;2022-07-29T12:56:36;8.00;;;1.48;;
62830;SDS011;48889;55.782;37.708;2022-07-29T13:01:43;2.87;;;1.30;;
62830;SDS011;48889;55.782;37.708;2022-07-29T13:04:09;6.10;;;1.10;;
62830;SDS011;48889;55.782;37.708;2022-07-29T13:09:14;2.03;;;0.93;;
62830;SDS011;48889;55.782;37.708;2022-07-29T13:11:43;1.05;;;0.73;;
62830;SDS011;48889;55.782;37.708;2022-07-29T13:14:11;1.20;;;0.77;;
62830;SDS011;48889;55.782;37.708;2022-07-29T13:17:00;5.32;;;0.68;;
62830;SDS011;48889;55.782;37.708;2022-07-29T13:19:36;5.25;;;0.85;;
62830;SDS011;48889;55.782;37.708;2022-07-29T13:22:02;1.95;;;0.70;;
62830;SDS011;48889;55.782;37.708;2022-07-29T13:24:28;5.65;;;0.82;;
62830;SDS011;48889;55.782;37.708;2022-07-29T13:26:54;1.52;;;0.80;;
62830;SDS011;48889;55.782;37.708;2022-07-29T13:29:19;1.63;;;0.80;;
62830;SDS011;48889;55.782;37.708;2022-07-29T13:31:45;7.68;;;0.90;;
62830;SDS011;48889;55.782;37.708;2022-07-29T13:34:11;2.67;;;0.90;;
62830;SDS011;48889;55.782;37.708;2022-07-29T13:36:36;1.45;;;0.70;;
62830;SDS011;48889;55.782;37.708;2022-07-29T13:39:02;2.63;;;1.00;;
62830;SDS011;48889;55.782;37.708;2022-07-29T13:41:28;1.10;;;0.80;;
62830;SDS011;48889;55.782;37.708;2022-07-29T13:43:54;2.00;;;1.15;;
62830;SDS011;48889;55.782;37.708;2022-07-29T13:46:20;2.28;;;0.63;;
62830;SDS011;48889;55.782;37.708;2022-07-29T13:48:46;4.03;;;0.70;;
62830;SDS011;48889;55.782;37.708;2022-07-29T13:51:11;1.15;;;0.63;;
62830;SDS011;48889;55.782;37.708;2022-07-29T13:53:37;1.63;;;0.70;;
62830;SDS011;48889;55.782;37.708;2022-07-29T13:56:03;4.25;;;0.80;;
62830;SDS011;48889;55.782;37.708;2022-07-29T13:58:31;4.63;;;0.80;;
62830;SDS011;48889;55.782;37.708;2022-07-29T14:00:58;7.15;;;0.88;;
62830;SDS011;48889;55.782;37.708;2022-07-29T14:03:24;0.75;;;0.60;;
62830;SDS011;48889;55.782;37.708;2022-07-29T14:05:50;3.08;;;0.70;;
62830;SDS011;48889;55.782;37.708;2022-07-29T14:08:16;1.17;;;0.80;;
62830;SDS011;48889;55.782;37.708;2022-07-29T14:10:43;3.38;;;0.93;;
62830;SDS011;48889;55.782;37.708;2022-07-29T14:13:08;3.25;;;0.90;;
62830;SDS011;48889;55.782;37.708;2022-07-29T14:15:34;2.60;;;0.85;;
62830;SDS011;48889;55.782;37.708;2022-07-29T14:18:00;4.28;;;1.00;;
62830;SDS011;48889;55.782;37.708;2022-07-29T14:20:26;2.83;;;0.80;;
62830;SDS011;48889;55.782;37.708;2022-07-29T14:22:57;3.20;;;1.05;;
62830;SDS011;48889;55.782;37.708;2022-07-29T14:25:23;3.20;;;0.80;;
62830;SDS011;48889;55.782;37.708;2022-07-29T14:27:49;2.83;;;0.80;;
62830;SDS011;48889;55.782;37.708;2022-07-29T14:30:14;1.25;;;0.80;;
62830;SDS011;48889;55.782;37.708;2022-07-29T14:32:40;3.22;;;0.90;;
62830;SDS011;48889;55.782;37.708;2022-07-29T14:35:06;3.25;;;0.80;;
62830;SDS011;48889;55.782;37.708;2022-07-29T14:37:32;2.97;;;1.00;;
62830;SDS011;48889;55.782;37.708;2022-07-29T14:39:59;4.78;;;1.10;;
62830;SDS011;48889;55.782;37.708;2022-07-29T14:42:29;3.53;;;1.30;;
62830;SDS011;48889;55.782;37.708;2022-07-29T14:44:56;2.85;;;1.00;;
62830;SDS011;48889;55.782;37.708;2022-07-29T14:47:22;3.83;;;1.20;;
62830;SDS011;48889;55.782;37.708;2022-07-29T14:49:48;8.43;;;1.10;;
62830;SDS011;48889;55.782;37.708;2022-07-29T14:52:14;0.82;;;0.82;;
62830;SDS011;48889;55.782;37.708;2022-07-29T14:54:40;2.08;;;1.05;;
62830;SDS011;48889;55.782;37.708;2022-07-29T14:57:05;3.53;;;0.90;;
62830;SDS011;48889;55.782;37.708;2022-07-29T14:59:31;4.93;;;1.20;;
62830;SDS011;48889;55.782;37.708;2022-07-29T15:01:57;1.33;;;0.90;;
62830;SDS011;48889;55.782;37.708;2022-07-29T15:04:22;4.07;;;1.10;;
62830;SDS011;48889;55.782;37.708;2022-07-29T15:06:51;1.52;;;0.93;;
62830;SDS011;48889;55.782;37.708;2022-07-29T15:09:17;6.82;;;1.23;;
62830;SDS011;48889;55.782;37.708;2022-07-29T15:11:43;3.97;;;1.38;;
62830;SDS011;48889;55.782;37.708;2022-07-29T15:14:09;5.13;;;1.58;;
62830;SDS011;48889;55.782;37.708;2022-07-29T15:16:35;1.92;;;1.10;;
62830;SDS011;48889;55.782;37.708;2022-07-29T15:19:02;2.28;;;0.90;;
62830;SDS011;48889;55.782;37.708;2022-07-29T15:21:29;1.92;;;0.88;;
62830;SDS011;48889;55.782;37.708;2022-07-29T15:23:55;2.25;;;1.10;;
62830;SDS011;48889;55.782;37.708;2022-07-29T15:26:21;2.92;;;1.13;;
62830;SDS011;48889;55.782;37.708;2022-07-29T15:28:46;4.03;;;0.88;;
62830;SDS011;48889;55.782;37.708;2022-07-29T15:31:13;2.03;;;0.95;;
62830;SDS011;48889;55.782;37.708;2022-07-29T15:33:39;3.60;;;1.00;;
62830;SDS011;48889;55.782;37.708;2022-07-29T15:36:05;3.20;;;0.90;;
62830;SDS011;48889;55.782;37.708;2022-07-29T15:38:30;3.08;;;1.13;;
62830;SDS011;48889;55.782;37.708;2022-07-29T15:40:56;1.60;;;0.80;;
62830;SDS011;48889;55.782;37.708;2022-07-29T15:43:22;4.93;;;0.90;;
62830;SDS011;48889;55.782;37.708;2022-07-29T15:45:48;4.28;;;1.10;;
62830;SDS011;48889;55.782;37.708;2022-07-29T15:48:33;2.97;;;0.90;;
62830;SDS011;48889;55.782;37.708;2022-07-29T15:51:02;1.80;;;0.80;;